Terminal Aerodrome Forecast
Issued by NWS

Home | Current Version | Previous Version | Text Only | Print | Product List | Glossary On
Versions: 1 2 3 4 5 6 7 8 9 10 11 12 13 14 15 16 17
000
FTAK31 PAJN 292300
TAFAJN
TAF
PAJN 292323Z 3000/3024 25006KT P6SM -SHRA FEW012 OVC040
      TEMPO 3000/3003 6SM -SHRA BR SCT009 BKN025 OVC040
     FM300800 09004KT P6SM -SHRA BKN020 OVC040
     FM301000 VRB03KT 3SM -SHRA BR SCT015 OVC025
     FM301600 11004KT P6SM VCSH SCT020 OVC035=

USA.gov is the U.S. government's official web portal to all federal, state and local government web resources and services.